sensor_id;sensor_type;location;lat;lon;timestamp;P1;durP1;ratioP1;P2;durP2;ratioP2
32172;SDS011;18679;45.190;5.722;2023-07-16T00:00:30;2.38;;;0.90;;
32172;SDS011;18679;45.190;5.722;2023-07-16T00:03:32;1.98;;;0.98;;
32172;SDS011;18679;45.190;5.722;2023-07-16T00:06:33;2.83;;;0.65;;
32172;SDS011;18679;45.190;5.722;2023-07-16T00:09:34;4.13;;;0.77;;
32172;SDS011;18679;45.190;5.722;2023-07-16T00:12:35;1.13;;;0.75;;
32172;SDS011;18679;45.190;5.722;2023-07-16T00:15:36;2.63;;;0.73;;
32172;SDS011;18679;45.190;5.722;2023-07-16T00:18:38;1.70;;;0.57;;
32172;SDS011;18679;45.190;5.722;2023-07-16T00:21:40;0.75;;;0.75;;
32172;SDS011;18679;45.190;5.722;2023-07-16T00:24:41;1.33;;;0.68;;
32172;SDS011;18679;45.190;5.722;2023-07-16T00:27:43;3.50;;;0.80;;
32172;SDS011;18679;45.190;5.722;2023-07-16T00:30:44;1.25;;;0.77;;
32172;SDS011;18679;45.190;5.722;2023-07-16T00:33:45;2.65;;;0.50;;
32172;SDS011;18679;45.190;5.722;2023-07-16T00:36:48;0.70;;;0.70;;
32172;SDS011;18679;45.190;5.722;2023-07-16T00:39:49;4.03;;;0.52;;
32172;SDS011;18679;45.190;5.722;2023-07-16T00:42:51;0.80;;;0.60;;
32172;SDS011;18679;45.190;5.722;2023-07-16T00:45:51;1.63;;;0.77;;
32172;SDS011;18679;45.190;5.722;2023-07-16T00:48:53;0.45;;;0.40;;
32172;SDS011;18679;45.190;5.722;2023-07-16T00:51:58;2.33;;;0.82;;
32172;SDS011;18679;45.190;5.722;2023-07-16T00:54:59;3.25;;;0.82;;
32172;SDS011;18679;45.190;5.722;2023-07-16T00:58:01;1.00;;;0.77;;
32172;SDS011;18679;45.190;5.722;2023-07-16T01:01:08;0.70;;;0.55;;
32172;SDS011;18679;45.190;5.722;2023-07-16T01:04:08;3.90;;;0.77;;
32172;SDS011;18679;45.190;5.722;2023-07-16T01:07:11;0.80;;;0.60;;
32172;SDS011;18679;45.190;5.722;2023-07-16T01:10:14;0.80;;;0.60;;
32172;SDS011;18679;45.190;5.722;2023-07-16T01:13:16;0.95;;;0.88;;
32172;SDS011;18679;45.190;5.722;2023-07-16T01:16:18;3.85;;;1.00;;
32172;SDS011;18679;45.190;5.722;2023-07-16T01:19:25;2.13;;;0.80;;
32172;SDS011;18679;45.190;5.722;2023-07-16T01:22:35;0.90;;;0.70;;
32172;SDS011;18679;45.190;5.722;2023-07-16T01:32:37;1.75;;;0.90;;
32172;SDS011;18679;45.190;5.722;2023-07-16T01:35:42;2.15;;;0.90;;
32172;SDS011;18679;45.190;5.722;2023-07-16T01:38:44;0.80;;;0.80;;
32172;SDS011;18679;45.190;5.722;2023-07-16T01:41:46;2.88;;;0.60;;
32172;SDS011;18679;45.190;5.722;2023-07-16T01:44:47;1.02;;;0.60;;
32172;SDS011;18679;45.190;5.722;2023-07-16T01:51:13;1.52;;;0.80;;
32172;SDS011;18679;45.190;5.722;2023-07-16T01:54:14;2.45;;;0.77;;
32172;SDS011;18679;45.190;5.722;2023-07-16T01:57:15;1.00;;;0.90;;
32172;SDS011;18679;45.190;5.722;2023-07-16T02:00:18;1.73;;;0.80;;
32172;SDS011;18679;45.190;5.722;2023-07-16T02:03:24;3.05;;;0.88;;
32172;SDS011;18679;45.190;5.722;2023-07-16T02:06:25;0.90;;;0.60;;
32172;SDS011;18679;45.190;5.722;2023-07-16T02:09:26;1.90;;;0.60;;
32172;SDS011;18679;45.190;5.722;2023-07-16T02:12:27;1.90;;;0.85;;
32172;SDS011;18679;45.190;5.722;2023-07-16T02:15:29;1.83;;;0.65;;
32172;SDS011;18679;45.190;5.722;2023-07-16T02:18:30;1.95;;;0.60;;
32172;SDS011;18679;45.190;5.722;2023-07-16T02:21:32;3.08;;;0.88;;
32172;SDS011;18679;45.190;5.722;2023-07-16T02:24:34;1.10;;;0.90;;
32172;SDS011;18679;45.190;5.722;2023-07-16T02:27:36;2.10;;;0.85;;
32172;SDS011;18679;45.190;5.722;2023-07-16T02:30:40;1.10;;;0.65;;
32172;SDS011;18679;45.190;5.722;2023-07-16T02:33:42;2.53;;;0.70;;
32172;SDS011;18679;45.190;5.722;2023-07-16T02:36:43;1.38;;;0.77;;
32172;SDS011;18679;45.190;5.722;2023-07-16T02:39:44;0.93;;;0.70;;
32172;SDS011;18679;45.190;5.722;2023-07-16T02:42:46;1.67;;;0.90;;
32172;SDS011;18679;45.190;5.722;2023-07-16T02:45:48;1.73;;;0.93;;
32172;SDS011;18679;45.190;5.722;2023-07-16T02:48:49;1.20;;;0.60;;
32172;SDS011;18679;45.190;5.722;2023-07-16T02:51:51;1.52;;;0.90;;
32172;SDS011;18679;45.190;5.722;2023-07-16T02:54:52;2.20;;;0.77;;
32172;SDS011;18679;45.190;5.722;2023-07-16T02:57:53;2.17;;;0.90;;
32172;SDS011;18679;45.190;5.722;2023-07-16T03:00:54;1.00;;;0.80;;
32172;SDS011;18679;45.190;5.722;2023-07-16T03:03:55;1.67;;;0.88;;
32172;SDS011;18679;45.190;5.722;2023-07-16T03:06:57;1.23;;;0.80;;
32172;SDS011;18679;45.190;5.722;2023-07-16T03:09:58;1.25;;;0.60;;
32172;SDS011;18679;45.190;5.722;2023-07-16T03:13:01;1.00;;;0.80;;
32172;SDS011;18679;45.190;5.722;2023-07-16T03:16:03;1.10;;;0.70;;
32172;SDS011;18679;45.190;5.722;2023-07-16T03:19:05;4.72;;;0.90;;
32172;SDS011;18679;45.190;5.722;2023-07-16T03:22:07;2.05;;;0.90;;
32172;SDS011;18679;45.190;5.722;2023-07-16T03:25:08;1.63;;;0.82;;
32172;SDS011;18679;45.190;5.722;2023-07-16T03:28:09;0.85;;;0.75;;
32172;SDS011;18679;45.190;5.722;2023-07-16T03:31:14;1.58;;;1.00;;
32172;SDS011;18679;45.190;5.722;2023-07-16T03:34:18;1.15;;;0.70;;
32172;SDS011;18679;45.190;5.722;2023-07-16T03:37:18;3.78;;;0.98;;
32172;SDS011;18679;45.190;5.722;2023-07-16T03:40:25;1.00;;;0.65;;
32172;SDS011;18679;45.190;5.722;2023-07-16T03:43:27;1.30;;;0.60;;
32172;SDS011;18679;45.190;5.722;2023-07-16T03:46:34;0.80;;;0.65;;
32172;SDS011;18679;45.190;5.722;2023-07-16T03:49:36;0.93;;;0.40;;
32172;SDS011;18679;45.190;5.722;2023-07-16T03:52:37;1.58;;;0.80;;
32172;SDS011;18679;45.190;5.722;2023-07-16T03:55:38;1.73;;;0.90;;
32172;SDS011;18679;45.190;5.722;2023-07-16T03:58:40;1.92;;;0.95;;
32172;SDS011;18679;45.190;5.722;2023-07-16T04:01:41;1.77;;;0.95;;
32172;SDS011;18679;45.190;5.722;2023-07-16T04:04:43;1.02;;;0.70;;
32172;SDS011;18679;45.190;5.722;2023-07-16T04:07:44;4.57;;;0.80;;
32172;SDS011;18679;45.190;5.722;2023-07-16T04:10:45;2.38;;;1.17;;
32172;SDS011;18679;45.190;5.722;2023-07-16T04:13:48;0.95;;;0.68;;
32172;SDS011;18679;45.190;5.722;2023-07-16T04:16:49;2.55;;;1.10;;
32172;SDS011;18679;45.190;5.722;2023-07-16T04:19:51;1.08;;;0.90;;
32172;SDS011;18679;45.190;5.722;2023-07-16T04:22:52;1.35;;;0.65;;
32172;SDS011;18679;45.190;5.722;2023-07-16T04:25:55;0.93;;;0.50;;
32172;SDS011;18679;45.190;5.722;2023-07-16T04:28:56;3.30;;;1.73;;
32172;SDS011;18679;45.190;5.722;2023-07-16T04:31:57;0.60;;;0.60;;
32172;SDS011;18679;45.190;5.722;2023-07-16T04:34:59;3.67;;;0.80;;
32172;SDS011;18679;45.190;5.722;2023-07-16T04:38:01;2.85;;;0.85;;
32172;SDS011;18679;45.190;5.722;2023-07-16T04:41:02;3.13;;;0.63;;
32172;SDS011;18679;45.190;5.722;2023-07-16T04:44:04;3.80;;;0.80;;
32172;SDS011;18679;45.190;5.722;2023-07-16T04:47:06;1.75;;;0.90;;
32172;SDS011;18679;45.190;5.722;2023-07-16T04:50:07;0.98;;;0.80;;
32172;SDS011;18679;45.190;5.722;2023-07-16T04:53:10;1.15;;;0.70;;
32172;SDS011;18679;45.190;5.722;2023-07-16T04:56:14;3.45;;;0.95;;
32172;SDS011;18679;45.190;5.722;2023-07-16T04:59:16;2.45;;;1.00;;
32172;SDS011;18679;45.190;5.722;2023-07-16T05:02:18;3.85;;;1.00;;
32172;SDS011;18679;45.190;5.722;2023-07-16T05:05:19;0.82;;;0.70;;
32172;SDS011;18679;45.190;5.722;2023-07-16T05:08:20;1.33;;;1.02;;
32172;SDS011;18679;45.190;5.722;2023-07-16T05:11:21;1.85;;;0.65;;
32172;SDS011;18679;45.190;5.722;2023-07-16T05:14:27;4.85;;;0.90;;
32172;SDS011;18679;45.190;5.722;2023-07-16T05:17:29;1.52;;;0.93;;
32172;SDS011;18679;45.190;5.722;2023-07-16T05:20:30;2.33;;;0.93;;
32172;SDS011;18679;45.190;5.722;2023-07-16T05:23:31;1.70;;;0.88;;
32172;SDS011;18679;45.190;5.722;2023-07-16T05:26:32;3.90;;;1.20;;
32172;SDS011;18679;45.190;5.722;2023-07-16T05:29:33;3.00;;;0.80;;
32172;SDS011;18679;45.190;5.722;2023-07-16T05:32:35;1.23;;;0.90;;
32172;SDS011;18679;45.190;5.722;2023-07-16T05:35:36;4.30;;;0.80;;
32172;SDS011;18679;45.190;5.722;2023-07-16T05:38:39;2.63;;;0.88;;
32172;SDS011;18679;45.190;5.722;2023-07-16T05:41:40;1.75;;;0.93;;
32172;SDS011;18679;45.190;5.722;2023-07-16T05:44:42;1.75;;;0.85;;
32172;SDS011;18679;45.190;5.722;2023-07-16T05:47:44;1.60;;;0.70;;
32172;SDS011;18679;45.190;5.722;2023-07-16T05:50:45;2.40;;;1.05;;
32172;SDS011;18679;45.190;5.722;2023-07-16T05:53:46;1.65;;;0.98;;
32172;SDS011;18679;45.190;5.722;2023-07-16T05:56:47;3.30;;;0.90;;
32172;SDS011;18679;45.190;5.722;2023-07-16T05:59:49;5.53;;;1.10;;
32172;SDS011;18679;45.190;5.722;2023-07-16T06:02:51;3.00;;;1.00;;
32172;SDS011;18679;45.190;5.722;2023-07-16T06:05:52;1.05;;;0.73;;
32172;SDS011;18679;45.190;5.722;2023-07-16T06:08:53;4.45;;;0.90;;
32172;SDS011;18679;45.190;5.722;2023-07-16T06:11:54;0.77;;;0.60;;
32172;SDS011;18679;45.190;5.722;2023-07-16T06:14:55;2.05;;;0.90;;
32172;SDS011;18679;45.190;5.722;2023-07-16T06:17:58;2.28;;;1.15;;
32172;SDS011;18679;45.190;5.722;2023-07-16T06:21:00;3.17;;;1.10;;
32172;SDS011;18679;45.190;5.722;2023-07-16T06:24:02;2.13;;;1.00;;
32172;SDS011;18679;45.190;5.722;2023-07-16T06:27:03;1.55;;;1.00;;
32172;SDS011;18679;45.190;5.722;2023-07-16T06:30:05;1.30;;;0.85;;
32172;SDS011;18679;45.190;5.722;2023-07-16T06:33:07;1.15;;;0.85;;
32172;SDS011;18679;45.190;5.722;2023-07-16T06:36:08;2.22;;;1.10;;
32172;SDS011;18679;45.190;5.722;2023-07-16T06:39:13;1.65;;;0.88;;
32172;SDS011;18679;45.190;5.722;2023-07-16T06:42:17;1.25;;;0.70;;
32172;SDS011;18679;45.190;5.722;2023-07-16T06:45:18;1.02;;;0.80;;
32172;SDS011;18679;45.190;5.722;2023-07-16T06:48:20;2.40;;;1.10;;
32172;SDS011;18679;45.190;5.722;2023-07-16T06:51:21;2.78;;;1.15;;
32172;SDS011;18679;45.190;5.722;2023-07-16T06:54:23;3.08;;;1.00;;
32172;SDS011;18679;45.190;5.722;2023-07-16T06:57:25;1.48;;;0.88;;
32172;SDS011;18679;45.190;5.722;2023-07-16T07:00:26;1.13;;;0.75;;
32172;SDS011;18679;45.190;5.722;2023-07-16T07:03:28;2.97;;;1.25;;
32172;SDS011;18679;45.190;5.722;2023-07-16T07:06:29;2.28;;;1.15;;
32172;SDS011;18679;45.190;5.722;2023-07-16T07:09:32;3.67;;;1.27;;
32172;SDS011;18679;45.190;5.722;2023-07-16T07:12:36;3.03;;;1.00;;
32172;SDS011;18679;45.190;5.722;2023-07-16T07:15:38;2.20;;;0.60;;
32172;SDS011;18679;45.190;5.722;2023-07-16T07:18:39;3.85;;;0.98;;
32172;SDS011;18679;45.190;5.722;2023-07-16T07:21:42;2.67;;;0.98;;
32172;SDS011;18679;45.190;5.722;2023-07-16T07:24:43;1.77;;;0.90;;
32172;SDS011;18679;45.190;5.722;2023-07-16T07:27:44;5.05;;;1.10;;
32172;SDS011;18679;45.190;5.722;2023-07-16T07:30:45;1.25;;;0.85;;
32172;SDS011;18679;45.190;5.722;2023-07-16T07:33:47;1.85;;;0.90;;
32172;SDS011;18679;45.190;5.722;2023-07-16T07:36:48;2.67;;;1.08;;
32172;SDS011;18679;45.190;5.722;2023-07-16T07:39:52;4.63;;;1.10;;
32172;SDS011;18679;45.190;5.722;2023-07-16T07:42:54;2.13;;;1.00;;
32172;SDS011;18679;45.190;5.722;2023-07-16T07:45:55;2.17;;;1.02;;
32172;SDS011;18679;45.190;5.722;2023-07-16T07:48:56;1.73;;;0.80;;
32172;SDS011;18679;45.190;5.722;2023-07-16T07:51:57;2.05;;;1.10;;
32172;SDS011;18679;45.190;5.722;2023-07-16T07:54:58;3.17;;;1.00;;
32172;SDS011;18679;45.190;5.722;2023-07-16T07:57:59;1.98;;;0.88;;
32172;SDS011;18679;45.190;5.722;2023-07-16T08:01:04;1.52;;;0.90;;
32172;SDS011;18679;45.190;5.722;2023-07-16T08:04:06;1.92;;;0.95;;
32172;SDS011;18679;45.190;5.722;2023-07-16T08:07:07;2.35;;;1.05;;
32172;SDS011;18679;45.190;5.722;2023-07-16T08:10:08;2.10;;;1.17;;
32172;SDS011;18679;45.190;5.722;2023-07-16T08:13:09;3.20;;;0.98;;
32172;SDS011;18679;45.190;5.722;2023-07-16T08:16:10;2.03;;;0.93;;
32172;SDS011;18679;45.190;5.722;2023-07-16T08:19:11;1.40;;;1.00;;
32172;SDS011;18679;45.190;5.722;2023-07-16T08:22:12;1.65;;;0.93;;
32172;SDS011;18679;45.190;5.722;2023-07-16T08:25:14;3.45;;;1.02;;
32172;SDS011;18679;45.190;5.722;2023-07-16T08:28:15;0.90;;;0.80;;
32172;SDS011;18679;45.190;5.722;2023-07-16T08:31:18;3.50;;;1.02;;
32172;SDS011;18679;45.190;5.722;2023-07-16T08:34:21;1.45;;;0.90;;
32172;SDS011;18679;45.190;5.722;2023-07-16T08:37:22;2.47;;;0.95;;
32172;SDS011;18679;45.190;5.722;2023-07-16T08:40:23;1.67;;;0.80;;
32172;SDS011;18679;45.190;5.722;2023-07-16T08:43:25;1.88;;;1.08;;
32172;SDS011;18679;45.190;5.722;2023-07-16T08:46:27;0.95;;;0.90;;
32172;SDS011;18679;45.190;5.722;2023-07-16T08:49:29;2.05;;;1.00;;
32172;SDS011;18679;45.190;5.722;2023-07-16T08:52:32;5.50;;;1.08;;
32172;SDS011;18679;45.190;5.722;2023-07-16T08:55:33;3.38;;;1.10;;
32172;SDS011;18679;45.190;5.722;2023-07-16T08:58:38;2.63;;;1.02;;
32172;SDS011;18679;45.190;5.722;2023-07-16T09:01:41;1.83;;;0.90;;
32172;SDS011;18679;45.190;5.722;2023-07-16T09:04:43;0.90;;;0.80;;
32172;SDS011;18679;45.190;5.722;2023-07-16T09:07:48;4.80;;;1.25;;
32172;SDS011;18679;45.190;5.722;2023-07-16T09:10:55;6.80;;;0.90;;
32172;SDS011;18679;45.190;5.722;2023-07-16T09:13:56;1.38;;;1.17;;
32172;SDS011;18679;45.190;5.722;2023-07-16T09:16:58;1.13;;;0.88;;
32172;SDS011;18679;45.190;5.722;2023-07-16T09:20:01;1.98;;;1.20;;
32172;SDS011;18679;45.190;5.722;2023-07-16T09:23:02;3.38;;;1.08;;
32172;SDS011;18679;45.190;5.722;2023-07-16T09:26:04;1.00;;;0.90;;
32172;SDS011;18679;45.190;5.722;2023-07-16T09:29:08;2.95;;;1.10;;
32172;SDS011;18679;45.190;5.722;2023-07-16T09:32:09;3.53;;;1.02;;
32172;SDS011;18679;45.190;5.722;2023-07-16T09:35:14;1.42;;;0.90;;
32172;SDS011;18679;45.190;5.722;2023-07-16T09:38:16;3.38;;;1.13;;
32172;SDS011;18679;45.190;5.722;2023-07-16T09:41:18;1.48;;;1.10;;
32172;SDS011;18679;45.190;5.722;2023-07-16T09:44:19;1.20;;;0.90;;
32172;SDS011;18679;45.190;5.722;2023-07-16T09:47:20;2.00;;;1.30;;
32172;SDS011;18679;45.190;5.722;2023-07-16T09:50:24;1.70;;;1.30;;
32172;SDS011;18679;45.190;5.722;2023-07-16T09:53:28;3.53;;;1.15;;
32172;SDS011;18679;45.190;5.722;2023-07-16T09:56:45;1.00;;;1.00;;
32172;SDS011;18679;45.190;5.722;2023-07-16T09:59:50;1.10;;;1.00;;
32172;SDS011;18679;45.190;5.722;2023-07-16T10:02:54;2.22;;;1.35;;
32172;SDS011;18679;45.190;5.722;2023-07-16T10:06:05;1.83;;;0.90;;
32172;SDS011;18679;45.190;5.722;2023-07-16T10:09:07;3.30;;;1.20;;
32172;SDS011;18679;45.190;5.722;2023-07-16T10:12:15;3.10;;;1.10;;
32172;SDS011;18679;45.190;5.722;2023-07-16T10:15:24;1.45;;;1.08;;
32172;SDS011;18679;45.190;5.722;2023-07-16T10:18:29;0.98;;;0.88;;
32172;SDS011;18679;45.190;5.722;2023-07-16T10:21:36;2.63;;;1.33;;
32172;SDS011;18679;45.190;5.722;2023-07-16T10:24:39;1.50;;;1.05;;
32172;SDS011;18679;45.190;5.722;2023-07-16T10:27:40;2.65;;;1.00;;
32172;SDS011;18679;45.190;5.722;2023-07-16T10:30:42;1.63;;;1.17;;
32172;SDS011;18679;45.190;5.722;2023-07-16T10:33:44;1.40;;;1.15;;
32172;SDS011;18679;45.190;5.722;2023-07-16T10:36:59;2.10;;;0.90;;
32172;SDS011;18679;45.190;5.722;2023-07-16T10:40:01;2.83;;;0.90;;
32172;SDS011;18679;45.190;5.722;2023-07-16T10:43:06;1.45;;;1.02;;
32172;SDS011;18679;45.190;5.722;2023-07-16T10:46:09;4.15;;;0.90;;
32172;SDS011;18679;45.190;5.722;2023-07-16T10:49:10;1.85;;;1.15;;
32172;SDS011;18679;45.190;5.722;2023-07-16T10:52:11;2.42;;;0.80;;
32172;SDS011;18679;45.190;5.722;2023-07-16T10:55:12;6.28;;;1.13;;
32172;SDS011;18679;45.190;5.722;2023-07-16T10:58:15;1.92;;;0.93;;
32172;SDS011;18679;45.190;5.722;2023-07-16T11:01:16;1.40;;;1.02;;
32172;SDS011;18679;45.190;5.722;2023-07-16T11:04:19;2.83;;;1.13;;
32172;SDS011;18679;45.190;5.722;2023-07-16T11:07:21;2.20;;;0.90;;
32172;SDS011;18679;45.190;5.722;2023-07-16T11:10:23;2.67;;;1.17;;
32172;SDS011;18679;45.190;5.722;2023-07-16T11:13:26;2.88;;;1.17;;
32172;SDS011;18679;45.190;5.722;2023-07-16T11:16:39;4.90;;;1.05;;
32172;SDS011;18679;45.190;5.722;2023-07-16T11:19:41;4.10;;;1.23;;
32172;SDS011;18679;45.190;5.722;2023-07-16T11:22:46;3.30;;;1.10;;
32172;SDS011;18679;45.190;5.722;2023-07-16T11:25:48;1.05;;;0.80;;
32172;SDS011;18679;45.190;5.722;2023-07-16T11:28:50;3.80;;;1.20;;
32172;SDS011;18679;45.190;5.722;2023-07-16T11:31:53;1.92;;;1.10;;
32172;SDS011;18679;45.190;5.722;2023-07-16T11:34:56;2.17;;;1.10;;
32172;SDS011;18679;45.190;5.722;2023-07-16T11:37:58;2.05;;;1.20;;
32172;SDS011;18679;45.190;5.722;2023-07-16T11:41:00;4.85;;;0.90;;
32172;SDS011;18679;45.190;5.722;2023-07-16T11:44:01;2.13;;;1.30;;
32172;SDS011;18679;45.190;5.722;2023-07-16T11:47:03;4.00;;;1.30;;
32172;SDS011;18679;45.190;5.722;2023-07-16T11:50:04;7.45;;;1.17;;
32172;SDS011;18679;45.190;5.722;2023-07-16T11:53:06;7.65;;;1.30;;
32172;SDS011;18679;45.190;5.722;2023-07-16T11:56:07;1.70;;;1.10;;
32172;SDS011;18679;45.190;5.722;2023-07-16T11:59:08;2.60;;;1.40;;
32172;SDS011;18679;45.190;5.722;2023-07-16T12:02:09;2.83;;;1.13;;
32172;SDS011;18679;45.190;5.722;2023-07-16T12:05:11;5.72;;;1.00;;
32172;SDS011;18679;45.190;5.722;2023-07-16T12:08:13;2.45;;;1.42;;
32172;SDS011;18679;45.190;5.722;2023-07-16T12:11:14;4.40;;;1.20;;
32172;SDS011;18679;45.190;5.722;2023-07-16T12:14:16;2.03;;;1.30;;
32172;SDS011;18679;45.190;5.722;2023-07-16T12:17:18;4.05;;;0.90;;
32172;SDS011;18679;45.190;5.722;2023-07-16T12:20:19;2.17;;;1.10;;
32172;SDS011;18679;45.190;5.722;2023-07-16T12:23:20;3.28;;;1.08;;
32172;SDS011;18679;45.190;5.722;2023-07-16T12:26:24;2.53;;;1.10;;
32172;SDS011;18679;45.190;5.722;2023-07-16T12:29:25;2.65;;;1.25;;
32172;SDS011;18679;45.190;5.722;2023-07-16T12:32:30;3.20;;;1.13;;
32172;SDS011;18679;45.190;5.722;2023-07-16T12:35:34;3.63;;;1.20;;
32172;SDS011;18679;45.190;5.722;2023-07-16T12:38:41;1.60;;;0.80;;
32172;SDS011;18679;45.190;5.722;2023-07-16T12:41:43;2.40;;;0.90;;
32172;SDS011;18679;45.190;5.722;2023-07-16T12:44:50;2.50;;;1.20;;
32172;SDS011;18679;45.190;5.722;2023-07-16T12:48:19;4.00;;;1.10;;
32172;SDS011;18679;45.190;5.722;2023-07-16T12:51:29;3.78;;;1.23;;
32172;SDS011;18679;45.190;5.722;2023-07-16T12:54:32;4.82;;;0.93;;
32172;SDS011;18679;45.190;5.722;2023-07-16T12:57:37;3.72;;;1.05;;
32172;SDS011;18679;45.190;5.722;2023-07-16T13:01:01;6.80;;;1.73;;
32172;SDS011;18679;45.190;5.722;2023-07-16T13:04:28;3.60;;;1.33;;
32172;SDS011;18679;45.190;5.722;2023-07-16T13:12:11;4.03;;;1.15;;
32172;SDS011;18679;45.190;5.722;2023-07-16T13:15:14;2.33;;;1.05;;
32172;SDS011;18679;45.190;5.722;2023-07-16T13:18:48;4.43;;;0.90;;
32172;SDS011;18679;45.190;5.722;2023-07-16T13:21:58;2.15;;;0.90;;
32172;SDS011;18679;45.190;5.722;2023-07-16T13:25:05;3.15;;;0.90;;
32172;SDS011;18679;45.190;5.722;2023-07-16T13:28:07;5.00;;;1.20;;
32172;SDS011;18679;45.190;5.722;2023-07-16T13:31:11;2.95;;;1.30;;
32172;SDS011;18679;45.190;5.722;2023-07-16T13:34:12;4.80;;;0.98;;
32172;SDS011;18679;45.190;5.722;2023-07-16T13:38:32;3.90;;;1.15;;
32172;SDS011;18679;45.190;5.722;2023-07-16T13:50:56;4.85;;;1.08;;
32172;SDS011;18679;45.190;5.722;2023-07-16T13:53:57;2.38;;;0.90;;
32172;SDS011;18679;45.190;5.722;2023-07-16T13:56:58;1.63;;;0.95;;
32172;SDS011;18679;45.190;5.722;2023-07-16T13:59:59;4.78;;;1.35;;
32172;SDS011;18679;45.190;5.722;2023-07-16T14:03:01;3.83;;;1.20;;
32172;SDS011;18679;45.190;5.722;2023-07-16T14:06:05;6.43;;;1.25;;
32172;SDS011;18679;45.190;5.722;2023-07-16T14:09:07;4.55;;;1.10;;
32172;SDS011;18679;45.190;5.722;2023-07-16T14:12:11;5.10;;;1.08;;
32172;SDS011;18679;45.190;5.722;2023-07-16T14:15:12;2.38;;;1.30;;
32172;SDS011;18679;45.190;5.722;2023-07-16T14:18:13;3.58;;;1.35;;
32172;SDS011;18679;45.190;5.722;2023-07-16T14:21:15;3.83;;;1.30;;
32172;SDS011;18679;45.190;5.722;2023-07-16T14:24:15;2.25;;;1.00;;
32172;SDS011;18679;45.190;5.722;2023-07-16T14:27:21;2.22;;;1.00;;
32172;SDS011;18679;45.190;5.722;2023-07-16T14:30:25;2.83;;;1.08;;
32172;SDS011;18679;45.190;5.722;2023-07-16T14:33:27;2.63;;;1.15;;
32172;SDS011;18679;45.190;5.722;2023-07-16T14:36:28;3.75;;;1.27;;
32172;SDS011;18679;45.190;5.722;2023-07-16T14:39:31;2.90;;;1.10;;
32172;SDS011;18679;45.190;5.722;2023-07-16T14:42:32;1.92;;;1.13;;
32172;SDS011;18679;45.190;5.722;2023-07-16T14:45:34;3.90;;;1.02;;
32172;SDS011;18679;45.190;5.722;2023-07-16T14:48:36;2.78;;;1.27;;
32172;SDS011;18679;45.190;5.722;2023-07-16T14:51:48;4.55;;;1.10;;
32172;SDS011;18679;45.190;5.722;2023-07-16T15:29:27;4.13;;;0.82;;
32172;SDS011;18679;45.190;5.722;2023-07-16T15:37:02;3.20;;;1.10;;
32172;SDS011;18679;45.190;5.722;2023-07-16T15:48:49;3.60;;;1.20;;
32172;SDS011;18679;45.190;5.722;2023-07-16T15:51:50;1.23;;;1.05;;
32172;SDS011;18679;45.190;5.722;2023-07-16T15:54:52;4.20;;;1.20;;
32172;SDS011;18679;45.190;5.722;2023-07-16T15:57:54;5.20;;;1.20;;
32172;SDS011;18679;45.190;5.722;2023-07-16T16:00:58;0.93;;;0.80;;
32172;SDS011;18679;45.190;5.722;2023-07-16T16:03:59;6.03;;;1.77;;
32172;SDS011;18679;45.190;5.722;2023-07-16T16:07:01;2.85;;;1.38;;
32172;SDS011;18679;45.190;5.722;2023-07-16T16:10:21;1.65;;;1.20;;
32172;SDS011;18679;45.190;5.722;2023-07-16T16:13:23;4.03;;;1.30;;
32172;SDS011;18679;45.190;5.722;2023-07-16T16:16:27;2.83;;;1.30;;
32172;SDS011;18679;45.190;5.722;2023-07-16T16:19:31;4.93;;;1.50;;
32172;SDS011;18679;45.190;5.722;2023-07-16T16:22:34;6.15;;;1.05;;
32172;SDS011;18679;45.190;5.722;2023-07-16T16:25:36;7.07;;;1.10;;
32172;SDS011;18679;45.190;5.722;2023-07-16T16:28:44;1.73;;;1.10;;
32172;SDS011;18679;45.190;5.722;2023-07-16T16:31:45;3.90;;;1.20;;
32172;SDS011;18679;45.190;5.722;2023-07-16T16:34:47;1.33;;;1.02;;
32172;SDS011;18679;45.190;5.722;2023-07-16T16:37:49;3.10;;;1.33;;
32172;SDS011;18679;45.190;5.722;2023-07-16T16:40:50;3.90;;;1.15;;
32172;SDS011;18679;45.190;5.722;2023-07-16T16:43:52;2.85;;;1.08;;
32172;SDS011;18679;45.190;5.722;2023-07-16T16:46:58;1.83;;;1.00;;
32172;SDS011;18679;45.190;5.722;2023-07-16T16:49:59;1.88;;;0.70;;
32172;SDS011;18679;45.190;5.722;2023-07-16T16:53:01;1.55;;;1.05;;
32172;SDS011;18679;45.190;5.722;2023-07-16T16:56:03;1.60;;;1.15;;
32172;SDS011;18679;45.190;5.722;2023-07-16T16:59:06;1.50;;;1.15;;
32172;SDS011;18679;45.190;5.722;2023-07-16T17:02:09;2.70;;;1.45;;
32172;SDS011;18679;45.190;5.722;2023-07-16T17:05:11;3.15;;;1.38;;
32172;SDS011;18679;45.190;5.722;2023-07-16T17:08:13;5.00;;;1.20;;
32172;SDS011;18679;45.190;5.722;2023-07-16T17:11:14;6.32;;;1.25;;
32172;SDS011;18679;45.190;5.722;2023-07-16T17:14:15;1.77;;;1.13;;
32172;SDS011;18679;45.190;5.722;2023-07-16T17:17:17;6.93;;;1.73;;
32172;SDS011;18679;45.190;5.722;2023-07-16T17:20:19;4.10;;;1.30;;
32172;SDS011;18679;45.190;5.722;2023-07-16T17:23:23;2.45;;;1.30;;
32172;SDS011;18679;45.190;5.722;2023-07-16T17:26:24;6.75;;;1.13;;
32172;SDS011;18679;45.190;5.722;2023-07-16T17:29:27;2.38;;;1.23;;
32172;SDS011;18679;45.190;5.722;2023-07-16T17:32:30;3.28;;;1.40;;
32172;SDS011;18679;45.190;5.722;2023-07-16T17:35:31;5.22;;;1.48;;
32172;SDS011;18679;45.190;5.722;2023-07-16T17:38:35;4.30;;;1.45;;
32172;SDS011;18679;45.190;5.722;2023-07-16T17:41:37;4.75;;;1.55;;
32172;SDS011;18679;45.190;5.722;2023-07-16T17:44:38;3.33;;;1.30;;
32172;SDS011;18679;45.190;5.722;2023-07-16T17:47:41;3.92;;;1.38;;
32172;SDS011;18679;45.190;5.722;2023-07-16T17:50:42;3.17;;;1.33;;
32172;SDS011;18679;45.190;5.722;2023-07-16T17:53:51;4.28;;;1.45;;
32172;SDS011;18679;45.190;5.722;2023-07-16T17:56:52;3.00;;;1.20;;
32172;SDS011;18679;45.190;5.722;2023-07-16T17:59:54;5.05;;;1.30;;
32172;SDS011;18679;45.190;5.722;2023-07-16T18:02:58;3.45;;;1.30;;
32172;SDS011;18679;45.190;5.722;2023-07-16T18:06:00;3.92;;;1.20;;
32172;SDS011;18679;45.190;5.722;2023-07-16T18:09:03;4.30;;;1.30;;
32172;SDS011;18679;45.190;5.722;2023-07-16T18:12:07;4.45;;;1.52;;
32172;SDS011;18679;45.190;5.722;2023-07-16T18:15:08;4.18;;;1.40;;
32172;SDS011;18679;45.190;5.722;2023-07-16T18:18:10;9.05;;;1.60;;
32172;SDS011;18679;45.190;5.722;2023-07-16T18:21:12;3.45;;;1.48;;
32172;SDS011;18679;45.190;5.722;2023-07-16T18:24:14;5.28;;;1.50;;
32172;SDS011;18679;45.190;5.722;2023-07-16T18:27:16;6.63;;;1.60;;
32172;SDS011;18679;45.190;5.722;2023-07-16T18:30:17;2.80;;;1.27;;
32172;SDS011;18679;45.190;5.722;2023-07-16T18:33:19;4.55;;;1.73;;
32172;SDS011;18679;45.190;5.722;2023-07-16T18:36:23;4.78;;;1.70;;
32172;SDS011;18679;45.190;5.722;2023-07-16T18:39:24;3.50;;;1.58;;
32172;SDS011;18679;45.190;5.722;2023-07-16T18:42:26;4.53;;;1.45;;
32172;SDS011;18679;45.190;5.722;2023-07-16T18:45:29;5.22;;;1.45;;
32172;SDS011;18679;45.190;5.722;2023-07-16T18:48:31;3.78;;;1.27;;
32172;SDS011;18679;45.190;5.722;2023-07-16T18:51:32;3.25;;;1.48;;
32172;SDS011;18679;45.190;5.722;2023-07-16T18:54:33;7.63;;;1.30;;
32172;SDS011;18679;45.190;5.722;2023-07-16T18:57:34;2.85;;;1.83;;
32172;SDS011;18679;45.190;5.722;2023-07-16T19:00:35;5.03;;;1.48;;
32172;SDS011;18679;45.190;5.722;2023-07-16T19:03:37;7.68;;;1.75;;
32172;SDS011;18679;45.190;5.722;2023-07-16T19:06:39;4.43;;;1.35;;
32172;SDS011;18679;45.190;5.722;2023-07-16T19:09:40;2.53;;;1.20;;
32172;SDS011;18679;45.190;5.722;2023-07-16T19:12:42;8.95;;;1.58;;
32172;SDS011;18679;45.190;5.722;2023-07-16T19:15:44;6.22;;;1.67;;
32172;SDS011;18679;45.190;5.722;2023-07-16T19:18:46;3.60;;;1.55;;
32172;SDS011;18679;45.190;5.722;2023-07-16T19:21:48;2.35;;;1.40;;
32172;SDS011;18679;45.190;5.722;2023-07-16T19:24:51;2.42;;;1.50;;
32172;SDS011;18679;45.190;5.722;2023-07-16T19:28:01;2.40;;;1.17;;
32172;SDS011;18679;45.190;5.722;2023-07-16T19:31:04;6.15;;;1.27;;
32172;SDS011;18679;45.190;5.722;2023-07-16T19:34:07;5.53;;;1.38;;